createdAt,value
2022-07-29T00:01:07.071Z,99984.28
2022-07-29T00:03:46.640Z,99963.59
2022-07-29T00:06:14.132Z,99969.13
2022-07-29T00:08:42.462Z,99988.22
2022-07-29T00:11:10.110Z,99992.97
2022-07-29T00:13:37.765Z,99976.06
2022-07-29T00:16:05.449Z,99958.69
2022-07-29T00:18:33.368Z,99985.72
2022-07-29T00:21:01.032Z,99997.19
2022-07-29T00:23:29.229Z,99992.41
2022-07-29T00:25:57.277Z,99981.09
2022-07-29T00:28:24.859Z,99995.06
2022-07-29T00:30:54.220Z,99978.41
2022-07-29T00:33:21.868Z,99991.56
2022-07-29T00:35:49.251Z,100005.56
2022-07-29T00:38:19.426Z,99968.06
2022-07-29T00:40:48.201Z,99977.59
2022-07-29T00:43:19.218Z,99995.78
2022-07-29T00:45:47.662Z,99983.84
2022-07-29T00:48:15.115Z,100007.81
2022-07-29T00:50:43.607Z,100025.28
2022-07-29T00:53:13.266Z,100008.03
2022-07-29T00:55:40.814Z,100025.63
2022-07-29T00:58:08.481Z,100007.44
2022-07-29T01:00:36.109Z,100015.25
2022-07-29T01:03:04.603Z,100035.84
2022-07-29T01:05:50.244Z,100022.25
2022-07-29T01:08:21.535Z,100028.50
2022-07-29T01:10:52.898Z,100037.41
2022-07-29T01:13:20.457Z,100042.22
2022-07-29T01:15:55.842Z,100014.66
2022-07-29T01:18:39.094Z,100024.41
2022-07-29T01:21:34.601Z,100042.88
2022-07-29T01:24:20.704Z,100041.72
2022-07-29T01:27:00.896Z,100045.09
2022-07-29T01:29:42.782Z,100049.28
2022-07-29T01:32:28.302Z,100053.91
2022-07-29T01:35:20.413Z,100052.78
2022-07-29T01:37:58.655Z,100050.03
2022-07-29T01:40:50.545Z,100054.06
2022-07-29T01:43:25.278Z,100030.06
2022-07-29T01:46:01.642Z,100053.31
2022-07-29T01:48:53.274Z,100029.78
2022-07-29T01:51:28.526Z,100050.75
2022-07-29T01:54:06.651Z,100046.91
2022-07-29T01:56:36.527Z,100043.50
2022-07-29T01:59:07.980Z,100027.38
2022-07-29T02:01:36.117Z,100048.81
2022-07-29T02:04:06.588Z,100024.03
2022-07-29T02:06:37.034Z,100033.66
2022-07-29T02:09:13.878Z,100031.16
2022-07-29T02:11:46.543Z,100045.25
2022-07-29T02:14:19.484Z,100048.69
2022-07-29T02:16:51.086Z,100056.78
2022-07-29T02:19:20.893Z,100027.88
2022-07-29T02:21:50.832Z,100049.78
2022-07-29T02:24:20.218Z,100046.06
2022-07-29T02:26:49.363Z,100065.22
2022-07-29T02:29:18.043Z,100067.28
2022-07-29T02:31:49.092Z,100031.25
2022-07-29T02:34:25.464Z,100021.50
2022-07-29T02:36:55.554Z,100043.72
2022-07-29T02:39:25.658Z,100045.88
2022-07-29T02:42:43.325Z,100066.06
2022-07-29T02:45:13.512Z,100047.81
2022-07-29T02:47:51.035Z,100049.03
2022-07-29T02:50:34.083Z,100051.66
2022-07-29T02:53:14.172Z,100062.16
2022-07-29T02:55:52.921Z,100030.44
2022-07-29T02:58:29.800Z,100060.16
2022-07-29T03:01:06.461Z,100038.38
2022-07-29T03:03:41.069Z,100057.41
2022-07-29T03:06:30.926Z,100044.53
2022-07-29T03:09:01.567Z,100035.13
2022-07-29T03:11:42.310Z,100069.09
2022-07-29T03:14:22.044Z,100046.44
2022-07-29T03:16:50.725Z,100044.06
2022-07-29T03:19:19.307Z,100043.56
2022-07-29T03:21:51.053Z,100053.16
2022-07-29T03:24:49.428Z,100038.94
2022-07-29T03:27:20.017Z,100058.38
2022-07-29T03:29:50.701Z,100039.44
2022-07-29T03:32:23.773Z,100021.09
2022-07-29T03:34:54.504Z,100048.19
2022-07-29T03:37:21.832Z,100036.22
2022-07-29T03:39:52.795Z,100029.03
2022-07-29T03:42:25.429Z,100062.16
2022-07-29T03:46:02.386Z,100061.69
2022-07-29T03:49:02.822Z,100042.72
2022-07-29T03:51:38.196Z,100070.09
2022-07-29T03:54:10.092Z,100026.75
2022-07-29T03:56:53.680Z,100053.72
2022-07-29T04:00:07.967Z,100031.63
2022-07-29T04:02:38.047Z,100052.72
2022-07-29T04:05:41.208Z,100072.91
2022-07-29T04:12:51.391Z,100042.50
2022-07-29T04:15:35.738Z,100069.78
2022-07-29T04:18:14.878Z,100076.13
2022-07-29T04:20:50.970Z,100056.41
2022-07-29T04:23:53.838Z,100035.97
2022-07-29T04:26:37.365Z,100043.09
2022-07-29T04:29:29.625Z,100067.31
2022-07-29T04:32:06.880Z,100048.41
2022-07-29T04:34:36.982Z,100099.69
2022-07-29T04:37:30.538Z,100093.09
2022-07-29T04:43:06.105Z,100075.59
2022-07-29T04:45:37.438Z,100071.94
2022-07-29T04:48:09.992Z,100086.94
2022-07-29T04:51:01.579Z,100074.88
2022-07-29T04:56:51.557Z,100070.81
2022-07-29T04:59:19.288Z,100067.59
2022-07-29T05:02:55.074Z,100066.63
2022-07-29T05:06:04.577Z,100069.84
2022-07-29T05:10:00.455Z,100082.72
2022-07-29T05:13:06.261Z,100092.84
2022-07-29T05:16:13.843Z,100077.53
2022-07-29T05:20:41.454Z,100100.66
2022-07-29T05:23:00.524Z,100063.22
2022-07-29T05:26:10.963Z,100111.16
2022-07-29T05:28:49.157Z,100071.06
2022-07-29T05:31:46.941Z,100107.94
2022-07-29T05:35:35.738Z,100067.94
2022-07-29T05:38:23.840Z,100064.34
2022-07-29T05:41:10.906Z,100079.03
2022-07-29T05:43:38.993Z,100088.13
2022-07-29T05:46:19.441Z,100080.59
2022-07-29T05:49:28.400Z,100074.88
2022-07-29T05:53:19.683Z,100082.56
2022-07-29T06:02:52.928Z,100065.19
2022-07-29T06:22:22.950Z,100065.56
2022-07-29T06:25:06.267Z,100053.75
2022-07-29T06:28:40.307Z,100055.09
2022-07-29T06:35:38.296Z,100062.84
2022-07-29T06:38:31.516Z,100067.41
2022-07-29T06:41:41.664Z,100041.91
2022-07-29T06:44:36.886Z,100039.75
2022-07-29T06:50:03.485Z,100044.25
2022-07-29T06:52:44.131Z,100041.97
2022-07-29T06:55:36.456Z,100063.31
2022-07-29T06:58:16.321Z,100047.47
2022-07-29T07:01:06.114Z,100046.78
2022-07-29T07:04:03.315Z,100060.25
2022-07-29T07:06:48.822Z,100050.63
2022-07-29T07:09:41.977Z,100050.00
2022-07-29T07:12:23.232Z,100044.72
2022-07-29T07:14:58.668Z,100037.03
2022-07-29T07:17:41.244Z,100057.34
2022-07-29T07:20:14.489Z,100054.94
2022-07-29T07:23:11.671Z,100059.34
2022-07-29T07:26:01.053Z,100059.38
2022-07-29T07:28:47.453Z,100070.78
2022-07-29T07:31:45.235Z,100058.72
2022-07-29T07:34:45.287Z,100065.94
2022-07-29T07:37:21.980Z,100061.44
2022-07-29T07:39:49.348Z,100056.44
2022-07-29T07:42:18.296Z,100062.72
2022-07-29T07:48:46.745Z,100048.25
2022-07-29T07:51:58.313Z,100078.06
2022-07-29T14:54:15.066Z,100020.25
2022-07-29T15:21:22.579Z,100010.28
2022-07-29T15:46:17.061Z,100007.09
2022-07-29T18:16:45.542Z,100123.72
2022-07-29T18:21:42.742Z,100154.84
2022-07-29T18:31:09.825Z,100155.25
2022-07-29T19:06:43.832Z,100149.00
2022-07-29T19:13:00.917Z,100135.31
2022-07-29T19:16:04.278Z,100144.13
2022-07-29T19:19:42.800Z,100139.63
2022-07-29T19:23:27.868Z,100148.03
2022-07-29T19:25:53.114Z,100137.38
2022-07-29T19:28:27.620Z,100112.06
2022-07-29T19:31:02.784Z,100162.78
2022-07-29T19:33:49.279Z,100122.91
2022-07-29T19:36:40.575Z,100124.75
2022-07-29T19:39:09.183Z,100142.44
2022-07-29T19:41:37.165Z,100142.16
2022-07-29T19:44:09.259Z,100141.78
2022-07-29T19:46:38.642Z,100130.72
2022-07-29T19:49:06.926Z,100139.44
2022-07-29T19:51:39.759Z,100133.44
2022-07-29T19:54:07.614Z,100118.19
2022-07-29T19:56:46.995Z,100137.38
2022-07-29T19:59:15.485Z,100122.66
2022-07-29T20:01:44.961Z,100163.31
2022-07-29T20:04:16.995Z,100151.81
2022-07-29T20:06:45.591Z,100142.28
2022-07-29T20:09:17.086Z,100143.69
2022-07-29T20:11:52.599Z,100131.50
2022-07-29T20:14:24.178Z,100164.69
2022-07-29T20:16:57.009Z,100164.97
2022-07-29T20:19:32.143Z,100133.69
2022-07-29T20:22:08.340Z,100149.28
2022-07-29T20:24:36.725Z,100144.22
2022-07-29T20:27:13.584Z,100147.59
2022-07-29T20:29:41.462Z,100148.84
2022-07-29T20:32:13.625Z,100171.25
2022-07-29T20:35:03.018Z,100155.13
2022-07-29T20:37:33.600Z,100156.25
2022-07-29T20:40:20.322Z,100160.03
2022-07-29T20:42:51.699Z,100182.47
2022-07-29T20:45:21.479Z,100161.16
2022-07-29T20:47:52.007Z,100161.00
2022-07-29T20:50:24.226Z,100150.50
2022-07-29T20:52:57.097Z,100168.53
2022-07-29T20:58:08.952Z,100169.91
2022-07-29T21:00:37.139Z,100194.44
2022-07-29T21:03:09.803Z,100173.28
2022-07-29T21:05:40.854Z,100183.78
2022-07-29T21:08:19.695Z,100189.22
2022-07-29T21:10:52.383Z,100213.59
2022-07-29T21:13:23.719Z,100206.72
2022-07-29T21:16:03.466Z,100201.78
2022-07-29T21:18:37.776Z,100178.00
2022-07-29T21:21:06.142Z,100182.31
2022-07-29T21:23:59.825Z,100224.19
2022-07-29T21:26:29.447Z,100227.38
2022-07-29T21:28:56.668Z,100194.81
2022-07-29T21:31:24.335Z,100217.53
2022-07-29T21:35:19.162Z,100233.81
2022-07-29T21:37:55.732Z,100231.84
2022-07-29T21:40:26.010Z,100198.72
2022-07-29T21:43:12.005Z,100206.44
2022-07-29T21:45:46.430Z,100229.75
2022-07-29T21:48:17.514Z,100216.06
2022-07-29T21:50:45.918Z,100219.13
2022-07-29T21:53:19.699Z,100233.78
2022-07-29T21:55:55.531Z,100215.59
2022-07-29T21:58:33.877Z,100196.38
2022-07-29T22:01:02.070Z,100244.59
2022-07-29T22:03:32.721Z,100231.38
2022-07-29T22:06:02.535Z,100216.09
2022-07-29T22:08:35.003Z,100244.31
2022-07-29T22:11:05.430Z,100223.50
2022-07-29T22:13:36.979Z,100232.91
2022-07-29T22:16:34.903Z,100248.78
2022-07-29T22:19:04.275Z,100241.84
2022-07-29T22:21:34.938Z,100261.22
2022-07-29T22:24:06.738Z,100247.72
2022-07-29T22:26:38.859Z,100235.66
2022-07-29T22:29:06.817Z,100227.06
2022-07-29T22:31:41.764Z,100240.97
2022-07-29T22:34:12.970Z,100243.22
2022-07-29T22:36:41.325Z,100228.38
2022-07-29T22:39:15.665Z,100253.50
2022-07-29T22:41:43.614Z,100247.63
2022-07-29T22:44:11.587Z,100260.97
2022-07-29T22:46:39.952Z,100244.63
2022-07-29T22:49:07.437Z,100270.53
2022-07-29T22:51:37.561Z,100260.88
2022-07-29T22:54:05.460Z,100252.47
2022-07-29T22:56:33.986Z,100258.28
2022-07-29T22:59:01.398Z,100259.13
2022-07-29T23:01:38.014Z,100269.28
2022-07-29T23:04:07.259Z,100258.59
2022-07-29T23:06:35.867Z,100295.06
2022-07-29T23:09:06.065Z,100258.44
2022-07-29T23:11:33.998Z,100271.34
2022-07-29T23:14:01.705Z,100290.81
2022-07-29T23:16:29.608Z,100291.31
2022-07-29T23:18:57.476Z,100273.81
2022-07-29T23:21:28.030Z,100286.81
2022-07-29T23:23:59.630Z,100278.16
2022-07-29T23:26:32.746Z,100266.88
2022-07-29T23:29:03.130Z,100288.81
2022-07-29T23:31:32.171Z,100269.91
2022-07-29T23:34:09.487Z,100285.00
2022-07-29T23:36:38.094Z,100267.25
2022-07-29T23:39:07.443Z,100247.63
2022-07-29T23:41:38.748Z,100271.25
2022-07-29T23:44:06.149Z,100295.75
2022-07-29T23:46:36.221Z,100270.28
2022-07-29T23:49:06.194Z,100257.50
2022-07-29T23:51:35.979Z,100279.94
2022-07-29T23:54:03.471Z,100267.66
2022-07-29T23:56:36.952Z,100243.56
2022-07-29T23:59:05.927Z,100253.59
